Time;durP1;ratioP1;P1;durP2;ratioP2;P2;SDS_P1;SDS_P2;PMS_P1;PMS_P2;Temp;Humidity;BMP_temperature;BMP_pressure;BME280_temperature;BME280_humidity;BME280_pressure;Samples;Min_cycle;Max_cycle;Signal;HPM_P1;HPM_P2
2022/09/17 00:01:33;;;;;;;1.47;1.37;;;12.30;99.90;;;;;;5032488;28;20605;-87
2022/09/17 00:04:03;;;;;;;3.20;1.87;;;12.40;99.90;;;;;;5027415;28;20509;-87
2022/09/17 00:06:35;;;;;;;1.37;1.30;;;12.30;99.90;;;;;;5028307;28;20460;-89
2022/09/17 00:09:05;;;;;;;1.40;1.40;;;12.30;99.90;;;;;;5024430;28;20648;-87
2022/09/17 00:11:35;;;;;;;1.43;1.33;;;12.30;99.90;;;;;;5024216;28;20899;-88
2022/09/17 00:14:08;;;;;;;1.47;1.37;;;12.30;99.90;;;;;;5028146;28;20472;-88
2022/09/17 00:16:39;;;;;;;1.30;1.30;;;12.20;99.90;;;;;;5025878;28;21024;-87
2022/09/17 00:19:12;;;;;;;2.17;1.50;;;12.20;99.90;;;;;;5027203;28;20734;-87
2022/09/17 00:21:42;;;;;;;1.93;1.40;;;12.20;99.90;;;;;;5026834;28;20467;-87
2022/09/17 00:24:12;;;;;;;1.40;1.40;;;12.10;99.90;;;;;;5022540;28;20488;-87
2022/09/17 00:26:41;;;;;;;1.87;1.77;;;12.10;99.90;;;;;;5025711;28;20453;-87
2022/09/17 00:29:10;;;;;;;1.47;1.47;;;12.20;99.90;;;;;;5031438;28;20466;-86
2022/09/17 00:31:39;;;;;;;1.70;1.60;;;12.10;99.90;;;;;;5044191;28;20464;-86
2022/09/17 00:34:08;;;;;;;1.70;1.60;;;12.20;99.90;;;;;;5026722;28;20468;-86
2022/09/17 00:36:37;;;;;;;1.70;1.60;;;12.20;99.90;;;;;;5031203;28;20457;-87
2022/09/17 00:39:09;;;;;;;1.40;1.40;;;12.10;99.90;;;;;;5031921;28;20469;-87
2022/09/17 00:41:38;;;;;;;2.10;1.80;;;12.20;99.90;;;;;;5029188;28;20468;-88
2022/09/17 00:44:42;;;;;;;1.87;1.77;;;12.20;99.90;;;;;;5027697;28;20484;-88
2022/09/17 00:47:17;;;;;;;1.47;1.47;;;12.20;99.90;;;;;;5022466;28;20449;-88
2022/09/17 00:49:46;;;;;;;1.70;1.60;;;12.20;99.90;;;;;;5023451;28;20466;-86
2022/09/17 00:52:17;;;;;;;1.77;1.67;;;12.20;99.90;;;;;;5025598;28;20868;-87
2022/09/17 00:54:54;;;;;;;1.50;1.50;;;12.20;99.90;;;;;;5030787;28;20955;-87
2022/09/17 00:57:22;;;;;;;1.60;1.50;;;12.20;99.90;;;;;;5031516;28;20452;-86
2022/09/17 00:59:51;;;;;;;1.70;1.60;;;12.30;99.90;;;;;;5026106;28;20466;-86
2022/09/17 01:02:20;;;;;;;1.80;1.70;;;12.20;99.90;;;;;;5032368;28;20796;-88
2022/09/17 01:04:50;;;;;;;2.53;2.07;;;12.30;99.90;;;;;;5027609;28;21019;-88
2022/09/17 01:07:41;;;;;;;2.00;1.90;;;12.30;99.90;;;;;;5033673;28;20461;-87
2022/09/17 01:10:20;;;;;;;1.70;1.60;;;12.30;99.90;;;;;;5022262;28;20990;-88
2022/09/17 01:13:01;;;;;;;1.73;1.70;;;12.30;99.90;;;;;;5030479;28;20460;-87
2022/09/17 01:15:36;;;;;;;2.23;1.67;;;12.20;1.00;;;;;;5025241;28;20458;-86
2022/09/17 01:18:17;;;;;;;2.10;1.80;;;12.30;99.90;;;;;;5023659;28;20455;-87
2022/09/17 01:21:24;;;;;;;1.90;1.80;;;12.20;1.00;;;;;;5018255;28;20489;-86
2022/09/17 01:24:28;;;;;;;3.87;1.83;;;12.10;1.00;;;;;;5028959;28;20480;-87
2022/09/17 01:27:28;;;;;;;1.90;1.80;;;12.10;1.00;;;;;;5031663;28;20804;-86
2022/09/17 01:30:21;;;;;;;1.90;1.80;;;12.10;1.00;;;;;;5028509;28;20524;-86
2022/09/17 01:32:57;;;;;;;1.90;1.80;;;12.10;1.00;;;;;;5029943;28;21118;-87
2022/09/17 01:35:33;;;;;;;2.47;2.37;;;12.20;1.00;;;;;;5040747;28;20467;-87
2022/09/17 01:38:07;;;;;;;2.10;2.00;;;12.30;1.00;;;;;;5028765;28;20463;-87
2022/09/17 01:40:41;;;;;;;2.20;2.10;;;12.30;1.00;;;;;;5031480;28;20456;-87
2022/09/17 01:43:17;;;;;;;2.33;1.80;;;12.10;1.00;;;;;;5031681;28;20491;-87
2022/09/17 01:45:50;;;;;;;2.00;1.90;;;12.00;99.90;;;;;;5030196;28;20459;-85
2022/09/17 01:48:23;;;;;;;2.13;2.03;;;12.00;99.90;;;;;;5026937;28;20460;-88
2022/09/17 01:51:07;;;;;;;3.10;2.13;;;11.90;93.10;;;;;;5028889;28;20461;-87
2022/09/17 01:53:41;;;;;;;1.80;1.70;;;11.90;99.90;;;;;;5030073;28;20559;-87
2022/09/17 01:56:12;;;;;;;2.10;1.90;;;12.10;99.90;;;;;;5033477;28;20460;-87
2022/09/17 01:58:45;;;;;;;2.10;1.90;;;12.10;1.00;;;;;;5031059;28;20459;-86
2022/09/17 02:01:17;;;;;;;1.83;1.60;;;12.00;1.00;;;;;;5027661;28;20445;-87
2022/09/17 02:03:53;;;;;;;2.00;1.90;;;12.10;1.00;;;;;;5029965;28;20476;-87
2022/09/17 02:06:26;;;;;;;2.40;1.87;;;12.00;1.00;;;;;;5031082;28;21205;-87
2022/09/17 02:08:57;;;;;;;2.10;2.00;;;12.00;99.90;;;;;;5028294;28;20464;-87
2022/09/17 02:11:26;;;;;;;1.80;1.70;;;12.00;99.90;;;;;;5035260;28;20447;-86
2022/09/17 02:13:59;;;;;;;3.87;1.70;;;12.10;1.00;;;;;;5025015;28;20477;-85
2022/09/17 02:16:30;;;;;;;1.90;1.80;;;12.10;99.90;;;;;;5030153;28;20453;-87
2022/09/17 02:19:05;;;;;;;2.43;2.33;;;12.00;99.90;;;;;;5030455;28;20464;-87
2022/09/17 02:21:40;;;;;;;2.00;1.80;;;12.10;99.90;;;;;;5029602;28;20452;-87
2022/09/17 02:24:17;;;;;;;2.17;1.90;;;12.10;99.90;;;;;;5029655;28;20480;-85
2022/09/17 02:26:50;;;;;;;2.30;2.20;;;12.10;99.90;;;;;;5027596;28;20457;-85
2022/09/17 02:29:26;;;;;;;2.07;1.97;;;12.10;99.90;;;;;;5032367;28;20456;-86
2022/09/17 02:31:54;;;;;;;5.50;1.90;;;12.00;99.90;;;;;;5031612;28;20452;-86
2022/09/17 02:34:26;;;;;;;1.93;1.83;;;12.00;99.90;;;;;;5029311;28;21053;-86
2022/09/17 02:36:55;;;;;;;1.97;1.70;;;12.00;99.90;;;;;;5029470;28;20460;-86
2022/09/17 02:39:23;;;;;;;1.90;1.80;;;11.90;99.90;;;;;;5031915;28;20445;-86
2022/09/17 02:41:58;;;;;;;1.90;1.80;;;11.90;99.90;;;;;;5030794;28;20489;-86
2022/09/17 02:44:37;;;;;;;1.80;1.70;;;12.00;99.90;;;;;;5029425;28;20981;-86
2022/09/17 02:47:29;;;;;;;3.13;2.63;;;12.10;99.90;;;;;;5024676;28;20454;-86
2022/09/17 02:50:18;;;;;;;1.57;1.50;;;12.00;99.90;;;;;;5033365;28;20468;-85
2022/09/17 02:52:57;;;;;;;3.30;1.87;;;11.90;99.90;;;;;;5029612;28;20508;-85
2022/09/17 02:55:31;;;;;;;4.40;1.77;;;12.00;99.90;;;;;;5026997;28;20460;-87
2022/09/17 02:58:11;;;;;;;2.10;2.00;;;12.00;99.90;;;;;;5027066;28;21073;-86
2022/09/17 03:00:40;;;;;;;1.77;1.63;;;12.00;84.80;;;;;;5030101;28;20442;-87
2022/09/17 03:03:13;;;;;;;5.83;2.30;;;12.00;35.80;;;;;;5028672;28;20476;-86
2022/09/17 03:05:44;;;;;;;2.43;2.17;;;11.90;26.50;;;;;;5035957;28;21057;-86
2022/09/17 03:08:14;;;;;;;2.60;1.70;;;11.90;82.20;;;;;;5039465;28;20467;-87
2022/09/17 03:10:42;;;;;;;2.13;2.03;;;11.80;99.90;;;;;;5022863;28;20475;-86
2022/09/17 03:13:10;;;;;;;2.43;2.00;;;11.80;95.70;;;;;;5027566;28;20484;-85
2022/09/17 03:15:38;;;;;;;3.80;2.10;;;11.80;99.90;;;;;;5030540;28;20853;-86
2022/09/17 03:18:07;;;;;;;2.30;2.10;;;11.70;99.90;;;;;;5028043;28;20460;-84
2022/09/17 03:20:35;;;;;;;2.67;1.70;;;11.70;99.90;;;;;;5032587;28;20523;-85
2022/09/17 03:23:04;;;;;;;2.00;1.90;;;11.70;99.90;;;;;;5022002;28;20896;-86
2022/09/17 03:25:33;;;;;;;2.60;1.80;;;11.60;99.90;;;;;;5030982;28;20499;-85
2022/09/17 03:28:01;;;;;;;3.50;1.80;;;11.60;99.90;;;;;;5024716;28;20462;-87
2022/09/17 03:30:29;;;;;;;2.13;1.83;;;11.60;99.90;;;;;;5027870;28;20538;-86
2022/09/17 03:32:58;;;;;;;2.40;2.17;;;11.60;99.90;;;;;;5029312;28;20479;-87
2022/09/17 03:35:26;;;;;;;2.83;1.93;;;11.60;99.90;;;;;;5026559;28;20448;-86
2022/09/17 03:37:54;;;;;;;1.77;1.63;;;11.60;99.90;;;;;;5032705;28;20458;-86
2022/09/17 03:40:24;;;;;;;1.73;1.60;;;11.70;99.90;;;;;;5029117;28;20452;-86
2022/09/17 03:42:52;;;;;;;2.40;1.87;;;11.70;99.90;;;;;;5030255;28;21006;-87
2022/09/17 03:45:20;;;;;;;2.33;1.67;;;11.70;99.90;;;;;;5028847;28;20999;-85
2022/09/17 03:47:48;;;;;;;2.90;1.97;;;11.70;99.90;;;;;;5028301;28;20459;-85
2022/09/17 03:50:18;;;;;;;2.00;1.80;;;11.70;99.90;;;;;;5028348;28;20468;-84
2022/09/17 03:52:46;;;;;;;2.80;1.67;;;11.80;99.90;;;;;;5042096;28;20486;-87
2022/09/17 03:55:15;;;;;;;2.40;1.90;;;11.70;99.90;;;;;;5033456;28;20457;-87
2022/09/17 03:57:44;;;;;;;3.93;1.97;;;11.70;99.90;;;;;;5030887;28;20732;-86
2022/09/17 04:00:16;;;;;;;2.03;1.83;;;11.70;99.90;;;;;;5038511;28;20456;-87
2022/09/17 04:02:44;;;;;;;2.50;1.70;;;11.70;99.90;;;;;;5028042;28;21093;-85
2022/09/17 04:05:12;;;;;;;1.60;1.50;;;11.70;99.90;;;;;;5039719;28;20503;-86
2022/09/17 04:07:41;;;;;;;2.33;2.23;;;11.60;99.90;;;;;;5037752;28;20547;-86
2022/09/17 04:10:09;;;;;;;2.73;1.70;;;11.60;99.90;;;;;;5027247;28;20508;-86
2022/09/17 04:12:38;;;;;;;2.57;1.80;;;11.60;99.90;;;;;;5030090;28;20511;-86
2022/09/17 04:15:08;;;;;;;2.03;1.93;;;11.60;99.90;;;;;;5032529;28;21005;-86
2022/09/17 04:17:37;;;;;;;2.93;1.60;;;11.60;1.00;;;;;;5028676;28;20459;-86
2022/09/17 04:20:06;;;;;;;2.60;1.60;;;11.50;1.00;;;;;;5027908;28;21130;-87
2022/09/17 04:22:34;;;;;;;2.60;1.83;;;11.70;1.00;;;;;;5028410;28;20967;-86
2022/09/17 04:25:02;;;;;;;4.83;1.87;;;11.70;1.00;;;;;;5031535;28;20457;-86
2022/09/17 04:27:30;;;;;;;4.20;1.83;;;11.70;1.00;;;;;;5027577;28;20975;-85
2022/09/17 04:30:00;;;;;;;1.70;1.70;;;11.60;99.90;;;;;;5023696;28;20453;-86
2022/09/17 04:32:29;;;;;;;2.40;1.80;;;11.50;1.00;;;;;;5026499;28;20537;-87
2022/09/17 04:34:58;;;;;;;2.53;2.33;;;11.40;1.00;;;;;;5027110;28;21186;-86
2022/09/17 04:37:26;;;;;;;3.20;1.77;;;11.50;1.00;;;;;;5026980;28;20469;-86
2022/09/17 04:39:54;;;;;;;4.93;1.60;;;11.50;1.00;;;;;;5028583;28;20476;-86
2022/09/17 04:42:22;;;;;;;1.90;1.80;;;11.50;1.00;;;;;;5024204;28;20465;-86
2022/09/17 04:44:51;;;;;;;3.03;1.83;;;11.30;1.00;;;;;;5025227;28;20499;-86
2022/09/17 04:47:19;;;;;;;2.10;1.97;;;11.30;2.90;;;;;;5026980;28;20806;-87
2022/09/17 04:49:49;;;;;;;4.73;1.70;;;11.40;1.00;;;;;;5022192;28;20475;-85
2022/09/17 04:52:17;;;;;;;4.43;2.17;;;11.40;1.00;;;;;;5027311;28;20471;-87
2022/09/17 04:54:45;;;;;;;2.13;1.60;;;11.50;99.90;;;;;;5032315;28;20461;-86
2022/09/17 04:57:13;;;;;;;3.87;1.77;;;11.40;99.90;;;;;;5023894;28;20471;-87
2022/09/17 04:59:41;;;;;;;4.70;1.60;;;11.40;99.90;;;;;;5026461;28;20955;-86
2022/09/17 05:02:10;;;;;;;2.03;1.87;;;11.40;99.90;;;;;;5027931;28;20957;-86
2022/09/17 05:04:38;;;;;;;3.53;1.60;;;11.40;99.90;;;;;;5026634;28;20968;-86
2022/09/17 05:07:08;;;;;;;2.47;2.27;;;11.40;99.90;;;;;;5027358;28;20940;-85
2022/09/17 05:09:41;;;;;;;2.30;1.83;;;11.40;99.90;;;;;;5029252;28;20480;-86
2022/09/17 05:12:09;;;;;;;3.93;1.93;;;11.40;99.90;;;;;;5024889;28;21002;-86
2022/09/17 05:14:37;;;;;;;5.03;1.87;;;11.50;99.90;;;;;;5024642;28;20518;-86
2022/09/17 05:17:05;;;;;;;3.10;1.87;;;11.50;99.90;;;;;;5024214;28;20448;-87
2022/09/17 05:19:34;;;;;;;6.57;2.20;;;11.50;55.10;;;;;;5027428;28;20460;-86
2022/09/17 05:22:02;;;;;;;2.60;2.10;;;11.50;99.90;;;;;;5025261;28;20941;-86
2022/09/17 05:24:32;;;;;;;3.97;2.00;;;11.50;91.50;;;;;;5022908;28;20484;-84
2022/09/17 05:27:00;;;;;;;3.70;2.10;;;11.50;99.00;;;;;;5026437;28;20991;-84
2022/09/17 05:29:29;;;;;;;3.07;2.13;;;11.50;55.50;;;;;;5025100;28;20745;-86
2022/09/17 05:31:57;;;;;;;3.00;2.73;;;11.60;80.90;;;;;;5026713;28;20484;-88
2022/09/17 05:34:25;;;;;;;2.37;2.23;;;11.50;99.90;;;;;;5023047;28;20772;-86
2022/09/17 05:36:53;;;;;;;2.33;2.10;;;11.30;99.90;;;;;;5028815;28;20870;-84
2022/09/17 05:39:24;;;;;;;3.57;2.60;;;11.40;99.90;;;;;;5040427;28;20547;-86
2022/09/17 05:41:54;;;;;;;3.33;2.10;;;11.40;99.90;;;;;;5023010;28;20469;-85
2022/09/17 05:44:22;;;;;;;2.43;2.30;;;11.40;99.90;;;;;;5026965;28;20487;-85
2022/09/17 05:46:53;;;;;;;4.80;2.23;;;11.40;99.90;;;;;;5026604;28;21159;-84
2022/09/17 05:49:22;;;;;;;2.63;2.33;;;11.50;99.90;;;;;;5024856;28;20452;-84
2022/09/17 05:51:50;;;;;;;2.10;1.90;;;11.40;99.90;;;;;;5025934;28;20448;-86
2022/09/17 05:54:19;;;;;;;5.27;1.90;;;11.40;80.50;;;;;;5026438;28;20499;-83
2022/09/17 05:56:47;;;;;;;3.63;1.90;;;11.30;99.90;;;;;;5040072;28;20448;-86
2022/09/17 05:59:16;;;;;;;2.93;2.20;;;11.40;99.90;;;;;;5032239;28;20456;-85
2022/09/17 06:01:45;;;;;;;4.40;2.00;;;11.50;70.70;;;;;;5027226;28;20456;-85
2022/09/17 06:04:13;;;;;;;5.30;2.20;;;11.50;86.70;;;;;;5030667;28;20871;-85
2022/09/17 06:06:41;;;;;;;5.63;2.40;;;11.50;32.70;;;;;;5035623;28;20483;-85
2022/09/17 06:09:10;;;;;;;2.80;2.20;;;11.30;99.90;;;;;;5036723;28;20469;-82
2022/09/17 06:11:38;;;;;;;4.20;2.53;;;11.30;99.90;;;;;;5035427;28;20464;-85
2022/09/17 06:14:06;;;;;;;2.70;2.50;;;11.40;99.90;;;;;;5032260;28;20495;-83
2022/09/17 06:16:36;;;;;;;3.30;2.20;;;11.50;99.90;;;;;;5028652;28;21245;-83
2022/09/17 06:19:04;;;;;;;2.70;2.03;;;11.60;99.90;;;;;;5036435;28;20975;-83
2022/09/17 06:21:33;;;;;;;3.30;2.17;;;11.60;97.00;;;;;;5031720;28;20462;-82
2022/09/17 06:24:02;;;;;;;2.50;2.40;;;11.60;99.90;;;;;;5028067;28;20481;-83
2022/09/17 06:26:30;;;;;;;2.60;2.17;;;11.80;54.50;;;;;;5028223;28;20484;-78
2022/09/17 06:29:00;;;;;;;6.03;2.97;;;12.00;61.60;;;;;;5033954;28;20459;-76
2022/09/17 06:31:28;;;;;;;8.60;2.57;;;12.30;1.00;;;;;;5026534;28;21005;-82
2022/09/17 06:33:58;;;;;;;4.13;2.40;;;12.30;1.00;;;;;;5029757;28;20518;-82
2022/09/17 06:36:26;;;;;;;2.50;2.30;;;12.10;1.00;;;;;;5043487;28;20464;-84
2022/09/17 06:38:55;;;;;;;2.47;2.27;;;12.00;1.00;;;;;;5031593;28;20460;-83
2022/09/17 06:41:23;;;;;;;2.10;2.00;;;12.00;1.00;;;;;;5033886;28;20495;-83
2022/09/17 06:43:53;;;;;;;2.20;2.10;;;11.90;1.00;;;;;;5031326;28;20484;-82
2022/09/17 06:46:21;;;;;;;3.23;2.37;;;11.90;1.00;;;;;;5033835;28;20494;-82
2022/09/17 06:48:49;;;;;;;3.13;2.87;;;12.00;1.00;;;;;;5030787;28;20455;-83
2022/09/17 06:51:19;;;;;;;2.80;2.57;;;12.00;1.00;;;;;;5032285;28;20851;-86
2022/09/17 06:53:47;;;;;;;3.00;2.40;;;12.00;1.00;;;;;;5026109;28;20536;-85
2022/09/17 06:56:16;;;;;;;2.40;1.70;;;12.00;1.00;;;;;;5023647;28;20572;-84
2022/09/17 06:58:45;;;;;;;4.23;2.60;;;11.90;1.00;;;;;;5026589;28;20815;-84
2022/09/17 07:01:14;;;;;;;3.00;2.40;;;12.00;1.00;;;;;;5027515;28;20491;-85
2022/09/17 07:03:43;;;;;;;4.00;2.30;;;11.90;1.00;;;;;;5026392;28;20544;-85
2022/09/17 07:06:11;;;;;;;5.47;2.77;;;11.80;1.00;;;;;;5026075;28;20486;-84
2022/09/17 07:08:41;;;;;;;2.40;2.20;;;11.80;1.50;;;;;;5028951;28;20445;-83
2022/09/17 07:11:09;;;;;;;2.43;2.23;;;11.80;99.90;;;;;;5019939;28;20467;-84
2022/09/17 07:13:37;;;;;;;2.20;2.10;;;11.80;99.90;;;;;;5018974;28;20487;-84
2022/09/17 07:16:07;;;;;;;2.93;2.40;;;11.70;99.90;;;;;;5032813;28;20471;-87
2022/09/17 07:18:35;;;;;;;2.63;2.47;;;11.70;99.90;;;;;;5028556;28;20823;-86
2022/09/17 07:21:06;;;;;;;5.23;2.37;;;11.50;99.90;;;;;;5026623;28;20445;-86
2022/09/17 07:23:36;;;;;;;2.60;2.27;;;11.50;99.90;;;;;;5033782;28;21085;-85
2022/09/17 07:26:08;;;;;;;2.73;2.53;;;11.60;1.00;;;;;;5028390;28;20948;-84
2022/09/17 07:28:38;;;;;;;2.63;2.30;;;11.60;1.00;;;;;;5026886;28;21278;-86
2022/09/17 07:31:08;;;;;;;4.67;3.30;;;11.80;99.90;;;;;;5028754;28;20471;-85
2022/09/17 07:33:43;;;;;;;3.10;2.90;;;11.80;1.00;;;;;;5026138;28;20464;-84
2022/09/17 07:36:13;;;;;;;3.67;3.23;;;11.80;1.00;;;;;;5026951;28;20464;-83
2022/09/17 07:38:42;;;;;;;2.63;2.53;;;11.80;1.00;;;;;;5026484;28;20480;-81
2022/09/17 07:41:13;;;;;;;2.57;2.43;;;11.90;1.00;;;;;;5026271;28;20464;-83
2022/09/17 07:43:42;;;;;;;5.03;3.10;;;11.80;1.00;;;;;;5022206;28;20473;-83
2022/09/17 07:46:14;;;;;;;2.60;2.40;;;11.90;1.00;;;;;;5028375;28;20445;-83
2022/09/17 07:48:42;;;;;;;3.10;2.53;;;11.80;1.00;;;;;;5026743;28;20506;-82
2022/09/17 07:51:15;;;;;;;2.60;2.40;;;12.00;1.00;;;;;;5025826;28;20485;-82
2022/09/17 07:53:44;;;;;;;2.90;2.50;;;11.90;1.00;;;;;;5025830;28;20588;-82
2022/09/17 07:56:14;;;;;;;2.97;2.57;;;11.80;1.00;;;;;;5025001;28;20466;-83
2022/09/17 07:58:42;;;;;;;2.87;2.60;;;11.60;99.90;;;;;;5028592;28;20445;-83
2022/09/17 08:01:14;;;;;;;2.87;2.77;;;11.70;53.60;;;;;;5023781;28;20448;-83
2022/09/17 08:03:43;;;;;;;2.20;2.10;;;11.60;99.90;;;;;;5027629;28;20468;-83
2022/09/17 08:06:14;;;;;;;2.73;2.53;;;11.60;83.60;;;;;;5026691;28;20870;-83
2022/09/17 08:08:42;;;;;;;2.30;2.20;;;11.50;99.90;;;;;;5027645;28;20454;-83
2022/09/17 08:11:12;;;;;;;5.17;3.90;;;11.70;99.90;;;;;;5031757;28;20468;-83
2022/09/17 08:13:42;;;;;;;2.50;2.40;;;11.70;1.00;;;;;;5022810;28;21019;-82
2022/09/17 08:16:12;;;;;;;2.60;2.50;;;11.80;99.90;;;;;;5021941;28;20453;-83
2022/09/17 08:18:40;;;;;;;3.40;3.20;;;11.70;1.00;;;;;;5025468;28;20499;-78
2022/09/17 08:21:12;;;;;;;4.30;2.80;;;11.60;1.00;;;;;;5030674;28;20452;-81
2022/09/17 08:23:41;;;;;;;2.73;2.63;;;11.60;61.20;;;;;;5027427;28;20491;-81
2022/09/17 08:26:13;;;;;;;2.93;2.50;;;11.70;1.00;;;;;;5027714;28;20457;-82
2022/09/17 08:28:46;;;;;;;3.67;2.50;;;11.80;99.90;;;;;;5023566;28;20484;-82
2022/09/17 08:31:16;;;;;;;3.30;3.00;;;11.80;99.90;;;;;;5031079;28;20515;-83
2022/09/17 08:33:45;;;;;;;4.83;2.80;;;12.00;1.00;;;;;;5024884;28;21050;-82
2022/09/17 08:36:15;;;;;;;2.90;2.70;;;11.90;1.00;;;;;;5029329;28;20942;-82
2022/09/17 08:38:43;;;;;;;3.93;2.80;;;12.00;1.00;;;;;;5030021;28;20926;-82
2022/09/17 08:41:22;;;;;;;3.10;2.90;;;12.10;34.80;;;;;;5029583;28;20530;-82
2022/09/17 08:44:01;;;;;;;5.53;3.37;;;12.20;21.20;;;;;;5028703;28;20477;-81
2022/09/17 08:46:33;;;;;;;3.70;3.40;;;12.30;1.00;;;;;;5028094;28;20985;-84
2022/09/17 08:49:11;;;;;;;5.70;2.90;;;12.40;1.00;;;;;;5025785;28;20460;-81
2022/09/17 08:51:46;;;;;;;3.40;3.10;;;12.50;99.90;;;;;;5026722;28;20452;-81
2022/09/17 08:54:21;;;;;;;3.00;2.80;;;12.30;1.00;;;;;;5020216;28;20991;-81
2022/09/17 08:57:04;;;;;;;5.33;3.47;;;12.40;99.90;;;;;;5022972;28;20948;-79
2022/09/17 08:59:38;;;;;;;4.60;4.20;;;12.50;1.00;;;;;;5024294;28;20777;-79
2022/09/17 09:02:19;;;;;;;3.70;3.20;;;12.60;1.00;;;;;;5023375;28;20456;-80
2022/09/17 09:05:02;;;;;;;3.60;3.40;;;12.70;1.00;;;;;;5022326;28;20529;-80
2022/09/17 09:07:37;;;;;;;3.60;3.20;;;12.70;1.00;;;;;;5041693;28;21402;-80
2022/09/17 09:10:13;;;;;;;4.10;3.57;;;12.60;99.90;;;;;;5026085;28;20450;-80
2022/09/17 09:12:44;;;;;;;4.23;3.90;;;12.70;99.90;;;;;;5040616;28;21025;-80
2022/09/17 09:15:28;;;;;;;6.93;4.23;;;12.60;99.90;;;;;;5022255;28;20472;-81
2022/09/17 09:18:02;;;;;;;5.13;3.53;;;12.70;99.90;;;;;;5024399;28;20538;-80
2022/09/17 09:20:43;;;;;;;4.23;3.90;;;12.60;50.50;;;;;;5026302;28;20483;-80
2022/09/17 09:23:18;;;;;;;3.77;3.37;;;12.70;3.00;;;;;;5025654;28;20866;-79
2022/09/17 09:25:57;;;;;;;6.10;3.70;;;12.60;1.00;;;;;;5023291;28;20465;-80
2022/09/17 09:29:04;;;;;;;8.10;3.30;;;12.70;1.00;;;;;;5022299;28;20962;-79
2022/09/17 09:31:53;;;;;;;5.73;3.23;;;12.60;1.00;;;;;;5007227;28;20615;-81
2022/09/17 09:34:22;;;;;;;4.10;3.00;;;12.90;1.00;;;;;;5022472;28;20499;-81
2022/09/17 09:36:52;;;;;;;4.10;3.70;;;12.80;1.00;;;;;;5021171;28;20473;-80
2022/09/17 09:39:24;;;;;;;3.73;3.20;;;13.00;1.00;;;;;;5025278;28;20449;-81
2022/09/17 09:41:58;;;;;;;5.40;4.03;;;13.20;1.00;;;;;;5032826;28;20461;-81
2022/09/17 09:44:27;;;;;;;5.03;3.00;;;13.40;1.00;;;;;;5032532;28;21009;-82
2022/09/17 09:47:19;;;;;;;3.50;3.30;;;13.50;1.00;;;;;;5035065;28;20858;-80
2022/09/17 09:50:06;;;;;;;6.27;3.67;;;13.50;1.00;;;;;;5030591;28;20516;-74
2022/09/17 09:52:48;;;;;;;4.53;3.57;;;13.30;1.00;;;;;;5027446;28;20473;-77
2022/09/17 09:55:31;;;;;;;3.73;3.43;;;13.10;1.00;;;;;;5036908;28;21929;-78
2022/09/17 09:58:10;;;;;;;6.60;3.33;;;13.00;1.00;;;;;;5026756;28;20457;-78
2022/09/17 10:00:41;;;;;;;5.90;3.00;;;12.90;1.00;;;;;;5025904;28;20469;-77
2022/09/17 10:03:16;;;;;;;3.87;3.30;;;12.90;1.00;;;;;;5022589;28;20510;-78
2022/09/17 10:05:54;;;;;;;3.80;3.13;;;13.30;1.00;;;;;;5022796;28;20448;-78
2022/09/17 10:08:23;;;;;;;3.53;3.17;;;13.30;99.90;;;;;;5023934;28;20477;-77
2022/09/17 10:10:57;;;;;;;4.60;4.20;;;13.30;99.90;;;;;;5025846;28;20462;-77
2022/09/17 10:13:27;;;;;;;2.90;2.70;;;13.40;99.90;;;;;;5039700;28;20502;-77
2022/09/17 10:15:55;;;;;;;3.47;3.17;;;13.40;99.90;;;;;;5026632;28;20450;-77
2022/09/17 10:18:25;;;;;;;3.57;3.37;;;13.50;99.90;;;;;;5046313;28;20481;-75
2022/09/17 10:20:56;;;;;;;4.07;2.57;;;13.60;99.90;;;;;;5023187;28;20464;-76
2022/09/17 10:23:27;;;;;;;2.73;2.63;;;13.50;99.90;;;;;;5025181;28;20470;-77
2022/09/17 10:25:56;;;;;;;4.83;3.50;;;13.80;99.90;;;;;;5020155;28;20520;-76
2022/09/17 10:28:44;;;;;;;5.23;2.93;;;14.20;99.90;;;;;;5030002;28;20515;-76
2022/09/17 10:31:12;;;;;;;5.03;3.83;;;14.80;99.90;;;;;;5022088;28;20509;-75
2022/09/17 10:33:52;;;;;;;6.00;3.70;;;15.20;99.90;;;;;;5027281;28;20482;-74
2022/09/17 10:36:40;;;;;;;2.33;2.20;;;15.10;99.90;;;;;;5025978;28;20551;-75
2022/09/17 10:39:32;;;;;;;3.23;2.37;;;15.10;99.90;;;;;;5025001;28;20903;-75
2022/09/17 10:42:03;;;;;;;3.17;2.60;;;15.20;99.90;;;;;;5022521;28;20555;-76
2022/09/17 10:44:32;;;;;;;3.67;3.37;;;15.40;99.90;;;;;;5025438;28;20727;-75
2022/09/17 10:47:07;;;;;;;2.40;2.20;;;15.50;99.90;;;;;;5025938;28;20464;-76
2022/09/17 10:49:42;;;;;;;4.07;2.17;;;15.60;99.90;;;;;;5026093;28;20985;-74
2022/09/17 10:52:21;;;;;;;2.83;2.30;;;15.80;99.90;;;;;;5027731;28;20487;-75
2022/09/17 10:55:06;;;;;;;3.57;1.90;;;15.80;99.90;;;;;;5021985;28;20452;-75
2022/09/17 10:57:52;;;;;;;3.77;2.20;;;15.50;99.90;;;;;;5029369;28;20513;-74
2022/09/17 11:00:22;;;;;;;4.83;2.37;;;15.20;99.90;;;;;;5028802;28;20506;-75
2022/09/17 11:03:27;;;;;;;5.33;2.30;;;15.10;99.90;;;;;;5030014;28;20930;-74
2022/09/17 11:06:20;;;;;;;2.10;1.87;;;15.20;99.90;;;;;;5019630;28;20460;-74
2022/09/17 11:08:58;;;;;;;2.03;1.80;;;15.00;99.90;;;;;;5022398;28;20508;-75
2022/09/17 11:11:39;;;;;;;2.00;1.90;;;14.80;99.90;;;;;;5023475;28;21052;-75
2022/09/17 11:14:19;;;;;;;3.77;2.50;;;14.60;99.90;;;;;;5026083;28;20574;-76
2022/09/17 11:16:54;;;;;;;4.67;2.20;;;14.60;99.90;;;;;;5018581;28;20475;-75
2022/09/17 11:19:35;;;;;;;2.80;2.17;;;14.70;99.90;;;;;;5026911;28;20831;-76
2022/09/17 11:22:14;;;;;;;3.33;2.00;;;15.10;99.90;;;;;;5025476;28;20509;-75
2022/09/17 11:25:05;;;;;;;3.30;1.80;;;15.40;99.90;;;;;;5025891;28;20916;-75
2022/09/17 11:27:52;;;;;;;2.93;2.00;;;15.40;99.90;;;;;;5026047;28;20455;-75
2022/09/17 11:30:22;;;;;;;4.23;1.90;;;15.60;99.90;;;;;;5021036;28;20457;-79
2022/09/17 11:33:25;;;;;;;2.10;1.90;;;15.90;99.90;;;;;;5026689;28;20625;-81
2022/09/17 11:35:59;;;;;;;2.20;1.73;;;16.10;99.90;;;;;;5032584;28;20451;-82
2022/09/17 11:38:33;;;;;;;3.47;1.80;;;16.20;99.90;;;;;;5030357;28;20459;-81
2022/09/17 11:41:06;;;;;;;1.97;1.87;;;16.20;99.90;;;;;;5021088;28;20452;-81
2022/09/17 11:43:37;;;;;;;2.20;1.90;;;16.00;99.90;;;;;;5023478;28;20534;-81
2022/09/17 11:46:09;;;;;;;1.30;1.30;;;16.20;99.90;;;;;;5023018;28;20507;-80
2022/09/17 11:48:45;;;;;;;2.90;1.50;;;16.30;99.90;;;;;;5022737;28;20485;-80
2022/09/17 11:51:23;;;;;;;1.80;1.50;;;16.50;99.90;;;;;;5028769;28;20547;-85
2022/09/17 11:53:57;;;;;;;3.57;1.80;;;16.60;99.90;;;;;;5024885;28;20494;-80
2022/09/17 11:56:30;;;;;;;5.03;1.60;;;16.70;99.90;;;;;;5027029;28;20454;-81
2022/09/17 11:59:03;;;;;;;2.13;1.60;;;16.90;99.90;;;;;;5028126;28;20873;-81
2022/09/17 12:01:36;;;;;;;1.87;1.50;;;17.00;99.90;;;;;;5018807;28;20459;-80
2022/09/17 12:04:32;;;;;;;3.87;1.80;;;17.10;99.90;;;;;;5023107;28;20480;-80
2022/09/17 12:07:08;;;;;;;5.13;1.87;;;17.20;99.90;;;;;;5021714;28;21591;-80
2022/09/17 12:09:43;;;;;;;4.20;2.10;;;17.10;99.90;;;;;;5027217;28;20563;-82
2022/09/17 12:12:16;;;;;;;2.27;1.80;;;16.90;99.90;;;;;;5027502;28;20463;-79
2022/09/17 12:15:13;;;;;;;2.30;1.90;;;16.50;99.90;;;;;;5025607;28;20458;-79
2022/09/17 12:17:47;;;;;;;2.30;1.60;;;16.30;99.90;;;;;;5032918;28;20462;-79
2022/09/17 12:20:24;;;;;;;1.80;1.70;;;16.30;99.90;;;;;;5023375;28;20497;-79
2022/09/17 12:22:54;;;;;;;1.70;1.60;;;16.10;99.90;;;;;;5021631;28;20476;-78
2022/09/17 12:25:26;;;;;;;2.60;1.63;;;16.00;99.90;;;;;;5025470;28;20495;-79
2022/09/17 12:27:59;;;;;;;2.37;1.70;;;16.10;99.90;;;;;;5020621;28;20494;-80
2022/09/17 12:30:34;;;;;;;2.23;1.80;;;16.00;99.90;;;;;;5038714;28;20486;-79
2022/09/17 12:33:24;;;;;;;1.77;1.67;;;16.10;99.90;;;;;;5029835;28;20510;-80
2022/09/17 12:36:06;;;;;;;3.80;1.83;;;16.00;99.90;;;;;;5025265;28;20541;-78
2022/09/17 12:38:53;;;;;;;1.50;1.40;;;16.00;99.90;;;;;;5024344;28;21052;-80
2022/09/17 12:41:26;;;;;;;4.03;2.13;;;16.10;99.90;;;;;;5023498;28;20466;-79
2022/09/17 12:44:24;;;;;;;2.13;1.57;;;15.90;99.90;;;;;;5018137;28;20491;-80
2022/09/17 12:47:05;;;;;;;2.20;1.60;;;15.90;99.90;;;;;;5022909;28;20534;-78
2022/09/17 12:49:50;;;;;;;2.13;1.47;;;15.70;99.90;;;;;;5019108;28;20530;-79
2022/09/17 12:52:33;;;;;;;2.00;1.63;;;15.70;99.90;;;;;;5021949;28;20543;-79
2022/09/17 12:55:27;;;;;;;2.03;1.83;;;15.50;99.90;;;;;;5023583;28;20494;-81
2022/09/17 12:58:07;;;;;;;2.17;1.80;;;15.20;99.90;;;;;;5016117;28;20472;-80
2022/09/17 13:00:42;;;;;;;2.10;1.90;;;15.00;99.90;;;;;;5030262;28;20508;-80
2022/09/17 13:03:19;;;;;;;2.35;2.05;;;15.10;99.90;;;;;;5028105;28;20491;-79
2022/09/17 13:06:04;;;;;;;3.47;2.13;;;14.90;99.90;;;;;;5025881;28;20220;-79
2022/09/17 13:09:18;;;;;;;3.23;2.80;;;14.80;99.90;;;;;;5027494;28;21083;-79
2022/09/17 13:12:02;;;;;;;3.00;2.00;;;14.40;99.90;;;;;;5022166;28;20453;-79
2022/09/17 13:14:51;;;;;;;2.23;2.13;;;13.70;99.90;;;;;;5030163;28;20233;-78
2022/09/17 13:17:28;;;;;;;2.47;2.27;;;13.50;1.00;;;;;;5026406;28;20454;-79
2022/09/17 13:20:02;;;;;;;2.47;2.15;;;13.30;99.90;;;;;;5030814;28;20433;-80
2022/09/17 13:22:33;;;;;;;2.13;2.03;;;13.10;99.90;;;;;;5031275;28;20195;-80
2022/09/17 13:25:05;;;;;;;3.17;2.27;;;13.10;99.90;;;;;;5029422;28;21154;-82